sensor_id;sensor_type;location;lat;lon;timestamp;pressure;altitude;pressure_sealevel;temperature;humidity
35307;BME280;21420;52.196;21.416;2023-01-16T00:01:02;99146.77;;;3.76;79.94
35307;BME280;21420;52.196;21.416;2023-01-16T00:03:28;99146.61;;;3.76;80.07
35307;BME280;21420;52.196;21.416;2023-01-16T00:05:55;99147.85;;;3.77;80.11
35307;BME280;21420;52.196;21.416;2023-01-16T00:08:22;99149.79;;;3.77;80.13
35307;BME280;21420;52.196;21.416;2023-01-16T00:10:49;99151.73;;;3.77;80.17
35307;BME280;21420;52.196;21.416;2023-01-16T00:13:16;99155.77;;;3.77;80.17
35307;BME280;21420;52.196;21.416;2023-01-16T00:15:43;99155.65;;;3.76;80.17
35307;BME280;21420;52.196;21.416;2023-01-16T00:18:10;99150.55;;;3.76;80.20
35307;BME280;21420;52.196;21.416;2023-01-16T00:20:37;99147.91;;;3.76;80.19
35307;BME280;21420;52.196;21.416;2023-01-16T00:23:04;99148.44;;;3.76;80.18
35307;BME280;21420;52.196;21.416;2023-01-16T00:25:31;99147.23;;;3.74;80.19
35307;BME280;21420;52.196;21.416;2023-01-16T00:27:58;99149.95;;;3.74;80.18
35307;BME280;21420;52.196;21.416;2023-01-16T00:30:26;99152.56;;;3.74;80.21
35307;BME280;21420;52.196;21.416;2023-01-16T00:32:52;99152.60;;;3.73;80.21
35307;BME280;21420;52.196;21.416;2023-01-16T00:35:19;99153.36;;;3.71;80.19
35307;BME280;21420;52.196;21.416;2023-01-16T00:37:46;99155.47;;;3.70;80.09
35307;BME280;21420;52.196;21.416;2023-01-16T00:40:13;99159.56;;;3.68;80.19
35307;BME280;21420;52.196;21.416;2023-01-16T00:42:40;99161.10;;;3.67;80.02
35307;BME280;21420;52.196;21.416;2023-01-16T00:45:07;99159.54;;;3.64;80.06
35307;BME280;21420;52.196;21.416;2023-01-16T00:47:34;99161.50;;;3.63;80.13
35307;BME280;21420;52.196;21.416;2023-01-16T00:50:00;99163.27;;;3.61;80.13
35307;BME280;21420;52.196;21.416;2023-01-16T00:52:27;99168.30;;;3.60;80.15
35307;BME280;21420;52.196;21.416;2023-01-16T00:54:54;99163.39;;;3.57;80.09
35307;BME280;21420;52.196;21.416;2023-01-16T00:57:21;99166.61;;;3.54;80.11
35307;BME280;21420;52.196;21.416;2023-01-16T00:59:48;99163.77;;;3.52;80.14
35307;BME280;21420;52.196;21.416;2023-01-16T01:02:15;99165.36;;;3.49;80.17
35307;BME280;21420;52.196;21.416;2023-01-16T01:04:42;99171.16;;;3.47;80.08
35307;BME280;21420;52.196;21.416;2023-01-16T01:07:09;99172.37;;;3.45;80.11
35307;BME280;21420;52.196;21.416;2023-01-16T01:09:36;99172.45;;;3.42;80.02
35307;BME280;21420;52.196;21.416;2023-01-16T01:12:03;99171.35;;;3.40;80.05
35307;BME280;21420;52.196;21.416;2023-01-16T01:14:30;99171.17;;;3.38;80.11
35307;BME280;21420;52.196;21.416;2023-01-16T01:16:57;99171.77;;;3.36;80.09
35307;BME280;21420;52.196;21.416;2023-01-16T01:19:24;99168.88;;;3.35;80.13
35307;BME280;21420;52.196;21.416;2023-01-16T01:21:50;99166.15;;;3.34;80.16
35307;BME280;21420;52.196;21.416;2023-01-16T01:24:17;99167.93;;;3.32;80.19
35307;BME280;21420;52.196;21.416;2023-01-16T01:26:44;99164.42;;;3.30;80.18
35307;BME280;21420;52.196;21.416;2023-01-16T01:29:11;99162.93;;;3.30;80.11
35307;BME280;21420;52.196;21.416;2023-01-16T01:31:37;99161.77;;;3.28;80.19
35307;BME280;21420;52.196;21.416;2023-01-16T01:34:04;99163.34;;;3.28;80.17
35307;BME280;21420;52.196;21.416;2023-01-16T01:36:31;99164.94;;;3.28;80.17
35307;BME280;21420;52.196;21.416;2023-01-16T01:39:00;99162.54;;;3.26;80.20
35307;BME280;21420;52.196;21.416;2023-01-16T01:41:26;99159.61;;;3.25;80.13
35307;BME280;21420;52.196;21.416;2023-01-16T01:43:54;99157.09;;;3.22;80.26
35307;BME280;21420;52.196;21.416;2023-01-16T01:46:34;99160.56;;;3.20;80.12
35307;BME280;21420;52.196;21.416;2023-01-16T01:49:08;99159.70;;;3.18;80.11
35307;BME280;21420;52.196;21.416;2023-01-16T01:51:39;99158.84;;;3.16;80.11
35307;BME280;21420;52.196;21.416;2023-01-16T01:54:09;99157.83;;;3.14;80.23
35307;BME280;21420;52.196;21.416;2023-01-16T01:56:41;99157.85;;;3.11;80.10
35307;BME280;21420;52.196;21.416;2023-01-16T01:59:15;99154.50;;;3.09;80.12
35307;BME280;21420;52.196;21.416;2023-01-16T02:01:43;99154.84;;;3.08;80.12
35307;BME280;21420;52.196;21.416;2023-01-16T02:04:15;99156.25;;;3.07;80.14
35307;BME280;21420;52.196;21.416;2023-01-16T02:06:50;99152.20;;;3.04;80.10
35307;BME280;21420;52.196;21.416;2023-01-16T02:09:18;99148.31;;;3.02;80.11
35307;BME280;21420;52.196;21.416;2023-01-16T02:14:15;99139.72;;;2.99;80.21
35307;BME280;21420;52.196;21.416;2023-01-16T02:16:43;99135.83;;;2.95;80.09
35307;BME280;21420;52.196;21.416;2023-01-16T02:22:24;99132.52;;;2.87;80.12
35307;BME280;21420;52.196;21.416;2023-01-16T02:32:37;99131.47;;;2.73;80.07
35307;BME280;21420;52.196;21.416;2023-01-16T02:35:08;99130.64;;;2.70;80.12
35307;BME280;21420;52.196;21.416;2023-01-16T02:38:44;99129.98;;;2.68;80.16
35307;BME280;21420;52.196;21.416;2023-01-16T02:40:57;99133.04;;;2.65;80.10
35307;BME280;21420;52.196;21.416;2023-01-16T02:45:59;99128.80;;;2.62;80.26
35307;BME280;21420;52.196;21.416;2023-01-16T02:48:37;99128.16;;;2.60;80.23
35307;BME280;21420;52.196;21.416;2023-01-16T02:53:41;99119.16;;;2.53;80.14
35307;BME280;21420;52.196;21.416;2023-01-16T02:56:10;99118.02;;;2.47;80.13
35307;BME280;21420;52.196;21.416;2023-01-16T02:58:43;99118.96;;;2.42;80.21
35307;BME280;21420;52.196;21.416;2023-01-16T03:01:11;99118.95;;;2.39;80.23
35307;BME280;21420;52.196;21.416;2023-01-16T03:11:19;99119.09;;;2.27;80.21
35307;BME280;21420;52.196;21.416;2023-01-16T03:14:07;99122.70;;;2.26;80.22
35307;BME280;21420;52.196;21.416;2023-01-16T03:19:30;99122.75;;;2.20;80.15
35307;BME280;21420;52.196;21.416;2023-01-16T03:24:30;99117.92;;;2.15;80.25
35307;BME280;21420;52.196;21.416;2023-01-16T03:27:07;99117.15;;;2.11;80.23
35307;BME280;21420;52.196;21.416;2023-01-16T03:29:55;99116.11;;;2.07;80.18
35307;BME280;21420;52.196;21.416;2023-01-16T03:34:58;99116.58;;;2.00;80.27
35307;BME280;21420;52.196;21.416;2023-01-16T03:37:45;99124.36;;;1.95;80.22
35307;BME280;21420;52.196;21.416;2023-01-16T03:45:21;99127.73;;;1.85;80.17
35307;BME280;21420;52.196;21.416;2023-01-16T03:47:51;99130.89;;;1.84;80.30
35307;BME280;21420;52.196;21.416;2023-01-16T03:50:21;99134.20;;;1.82;80.39
35307;BME280;21420;52.196;21.416;2023-01-16T03:52:52;99139.39;;;1.81;80.29
35307;BME280;21420;52.196;21.416;2023-01-16T03:55:26;99138.20;;;1.79;80.25
35307;BME280;21420;52.196;21.416;2023-01-16T03:58:02;99137.00;;;1.78;80.32
35307;BME280;21420;52.196;21.416;2023-01-16T04:00:36;99134.77;;;1.78;80.32
35307;BME280;21420;52.196;21.416;2023-01-16T04:03:07;99130.90;;;1.79;80.22
35307;BME280;21420;52.196;21.416;2023-01-16T04:05:46;99126.20;;;1.80;80.39
35307;BME280;21420;52.196;21.416;2023-01-16T04:08:31;99124.25;;;1.78;80.36
35307;BME280;21420;52.196;21.416;2023-01-16T04:11:00;99130.98;;;1.76;80.32
35307;BME280;21420;52.196;21.416;2023-01-16T04:13:29;99126.54;;;1.75;80.42
35307;BME280;21420;52.196;21.416;2023-01-16T04:15:58;99127.13;;;1.73;80.47
35307;BME280;21420;52.196;21.416;2023-01-16T04:18:30;99129.06;;;1.71;80.38
35307;BME280;21420;52.196;21.416;2023-01-16T04:20:57;99132.41;;;1.69;80.37
35307;BME280;21420;52.196;21.416;2023-01-16T04:23:24;99130.86;;;1.68;80.44
35307;BME280;21420;52.196;21.416;2023-01-16T04:25:51;99127.92;;;1.66;80.38
35307;BME280;21420;52.196;21.416;2023-01-16T04:28:18;99128.90;;;1.64;80.34
35307;BME280;21420;52.196;21.416;2023-01-16T04:30:44;99127.47;;;1.63;80.29
35307;BME280;21420;52.196;21.416;2023-01-16T04:33:11;99129.40;;;1.63;80.44
35307;BME280;21420;52.196;21.416;2023-01-16T04:35:38;99125.99;;;1.63;80.38
35307;BME280;21420;52.196;21.416;2023-01-16T04:38:05;99130.08;;;1.62;80.28
35307;BME280;21420;52.196;21.416;2023-01-16T04:40:32;99131.16;;;1.60;80.30
35307;BME280;21420;52.196;21.416;2023-01-16T04:42:58;99132.17;;;1.58;80.35
35307;BME280;21420;52.196;21.416;2023-01-16T04:45:25;99132.33;;;1.56;80.39
35307;BME280;21420;52.196;21.416;2023-01-16T04:47:52;99135.20;;;1.55;80.37
35307;BME280;21420;52.196;21.416;2023-01-16T04:50:19;99133.64;;;1.53;80.37
35307;BME280;21420;52.196;21.416;2023-01-16T04:52:46;99134.29;;;1.51;80.46
35307;BME280;21420;52.196;21.416;2023-01-16T04:55:13;99141.52;;;1.49;80.43
35307;BME280;21420;52.196;21.416;2023-01-16T04:57:40;99149.45;;;1.46;80.40
35307;BME280;21420;52.196;21.416;2023-01-16T05:00:08;99149.48;;;1.45;80.54
35307;BME280;21420;52.196;21.416;2023-01-16T05:02:35;99147.91;;;1.43;80.57
35307;BME280;21420;52.196;21.416;2023-01-16T05:05:02;99147.89;;;1.41;80.46
35307;BME280;21420;52.196;21.416;2023-01-16T05:07:29;99144.57;;;1.40;80.47
35307;BME280;21420;52.196;21.416;2023-01-16T05:09:56;99146.15;;;1.39;80.46
35307;BME280;21420;52.196;21.416;2023-01-16T05:12:23;99142.06;;;1.39;80.49
35307;BME280;21420;52.196;21.416;2023-01-16T05:14:50;99138.89;;;1.38;80.52
35307;BME280;21420;52.196;21.416;2023-01-16T05:17:16;99141.51;;;1.37;80.41
35307;BME280;21420;52.196;21.416;2023-01-16T05:19:43;99140.16;;;1.35;80.62
35307;BME280;21420;52.196;21.416;2023-01-16T05:22:10;99138.27;;;1.32;80.48
35307;BME280;21420;52.196;21.416;2023-01-16T05:24:37;99138.38;;;1.30;80.43
35307;BME280;21420;52.196;21.416;2023-01-16T05:27:04;99132.74;;;1.29;80.49
35307;BME280;21420;52.196;21.416;2023-01-16T05:29:31;99132.58;;;1.29;80.44
35307;BME280;21420;52.196;21.416;2023-01-16T05:31:58;99130.55;;;1.28;80.44
35307;BME280;21420;52.196;21.416;2023-01-16T05:34:25;99134.13;;;1.27;80.47
35307;BME280;21420;52.196;21.416;2023-01-16T05:36:51;99128.80;;;1.26;80.51
35307;BME280;21420;52.196;21.416;2023-01-16T05:39:18;99125.56;;;1.24;80.46
35307;BME280;21420;52.196;21.416;2023-01-16T05:41:45;99121.97;;;1.23;80.48
35307;BME280;21420;52.196;21.416;2023-01-16T05:44:14;99127.59;;;1.23;80.60
35307;BME280;21420;52.196;21.416;2023-01-16T05:46:41;99126.73;;;1.22;80.42
35307;BME280;21420;52.196;21.416;2023-01-16T05:49:08;99127.42;;;1.20;80.49
35307;BME280;21420;52.196;21.416;2023-01-16T05:51:35;99125.70;;;1.18;80.48
35307;BME280;21420;52.196;21.416;2023-01-16T05:54:01;99121.75;;;1.16;80.48
35307;BME280;21420;52.196;21.416;2023-01-16T05:56:28;99116.54;;;1.15;80.64
35307;BME280;21420;52.196;21.416;2023-01-16T05:58:55;99114.02;;;1.14;80.52
35307;BME280;21420;52.196;21.416;2023-01-16T06:01:23;99118.30;;;1.14;80.45
35307;BME280;21420;52.196;21.416;2023-01-16T06:03:50;99110.84;;;1.14;80.49
35307;BME280;21420;52.196;21.416;2023-01-16T06:06:17;99109.22;;;1.14;80.52
35307;BME280;21420;52.196;21.416;2023-01-16T06:08:45;99106.11;;;1.13;80.53
35307;BME280;21420;52.196;21.416;2023-01-16T06:11:12;99100.83;;;1.11;80.58
35307;BME280;21420;52.196;21.416;2023-01-16T06:13:39;99103.54;;;1.10;80.61
35307;BME280;21420;52.196;21.416;2023-01-16T06:16:06;99104.11;;;1.09;80.51
35307;BME280;21420;52.196;21.416;2023-01-16T06:18:33;99099.69;;;1.07;80.48
35307;BME280;21420;52.196;21.416;2023-01-16T06:21:00;99098.44;;;1.04;80.60
35307;BME280;21420;52.196;21.416;2023-01-16T06:23:27;99089.39;;;1.01;80.54
35307;BME280;21420;52.196;21.416;2023-01-16T06:25:54;99090.04;;;0.99;80.56
35307;BME280;21420;52.196;21.416;2023-01-16T06:28:21;99092.14;;;0.97;80.64
35307;BME280;21420;52.196;21.416;2023-01-16T06:30:51;99099.77;;;0.95;80.52
35307;BME280;21420;52.196;21.416;2023-01-16T06:33:18;99099.48;;;0.94;80.58
35307;BME280;21420;52.196;21.416;2023-01-16T06:35:45;99095.32;;;0.94;80.68
35307;BME280;21420;52.196;21.416;2023-01-16T06:38:12;99100.15;;;0.95;80.65
35307;BME280;21420;52.196;21.416;2023-01-16T06:40:39;99104.50;;;0.96;80.63
35307;BME280;21420;52.196;21.416;2023-01-16T06:43:06;99107.44;;;0.97;80.58
35307;BME280;21420;52.196;21.416;2023-01-16T06:45:33;99106.50;;;1.00;80.63
35307;BME280;21420;52.196;21.416;2023-01-16T06:48:00;99107.31;;;1.02;80.73
35307;BME280;21420;52.196;21.416;2023-01-16T06:50:27;99107.84;;;1.04;80.85
35307;BME280;21420;52.196;21.416;2023-01-16T06:52:53;99103.16;;;1.06;80.71
35307;BME280;21420;52.196;21.416;2023-01-16T06:55:20;99108.54;;;1.11;80.69
35307;BME280;21420;52.196;21.416;2023-01-16T06:57:47;99110.45;;;1.17;80.65
35307;BME280;21420;52.196;21.416;2023-01-16T07:00:15;99114.54;;;1.22;80.66
35307;BME280;21420;52.196;21.416;2023-01-16T07:02:42;99115.40;;;1.27;80.82
35307;BME280;21420;52.196;21.416;2023-01-16T07:05:09;99110.23;;;1.39;80.75
35307;BME280;21420;52.196;21.416;2023-01-16T07:07:36;99108.07;;;1.48;80.81
35307;BME280;21420;52.196;21.416;2023-01-16T07:10:03;99107.87;;;1.54;80.98
35307;BME280;21420;52.196;21.416;2023-01-16T07:12:30;99101.11;;;1.64;80.98
35307;BME280;21420;52.196;21.416;2023-01-16T07:14:57;99103.85;;;1.80;80.91
35307;BME280;21420;52.196;21.416;2023-01-16T07:17:42;99100.30;;;1.95;80.98
35307;BME280;21420;52.196;21.416;2023-01-16T07:20:55;99095.64;;;2.13;80.88
35307;BME280;21420;52.196;21.416;2023-01-16T07:23:43;99097.61;;;2.33;81.01
35307;BME280;21420;52.196;21.416;2023-01-16T07:26:11;99099.70;;;2.96;81.56
35307;BME280;21420;52.196;21.416;2023-01-16T07:28:39;99101.59;;;3.84;82.08
35307;BME280;21420;52.196;21.416;2023-01-16T07:31:06;99101.58;;;4.54;82.23
35307;BME280;21420;52.196;21.416;2023-01-16T07:33:34;99098.14;;;5.22;82.41
35307;BME280;21420;52.196;21.416;2023-01-16T07:36:01;99097.31;;;5.85;82.42
35307;BME280;21420;52.196;21.416;2023-01-16T07:38:28;99089.67;;;6.37;82.18
35307;BME280;21420;52.196;21.416;2023-01-16T07:40:55;99087.52;;;6.94;82.13
35307;BME280;21420;52.196;21.416;2023-01-16T07:43:22;99082.93;;;7.34;81.70
35307;BME280;21420;52.196;21.416;2023-01-16T07:45:48;99078.29;;;7.46;81.23
35307;BME280;21420;52.196;21.416;2023-01-16T07:48:19;99076.14;;;7.39;80.71
35307;BME280;21420;52.196;21.416;2023-01-16T07:50:50;99073.13;;;7.68;80.80
35307;BME280;21420;52.196;21.416;2023-01-16T07:53:18;99074.80;;;8.36;81.32
35307;BME280;21420;52.196;21.416;2023-01-16T07:55:51;99080.60;;;8.86;81.23
35307;BME280;21420;52.196;21.416;2023-01-16T07:58:18;99083.91;;;9.01;80.60
35307;BME280;21420;52.196;21.416;2023-01-16T08:00:46;99082.98;;;9.20;80.46
35307;BME280;21420;52.196;21.416;2023-01-16T08:03:13;99080.01;;;9.87;81.08
35307;BME280;21420;52.196;21.416;2023-01-16T08:05:41;99079.25;;;10.32;80.55
35307;BME280;21420;52.196;21.416;2023-01-16T08:08:11;99079.67;;;10.89;80.51
35307;BME280;21420;52.196;21.416;2023-01-16T08:10:38;99078.95;;;11.21;80.29
35307;BME280;21420;52.196;21.416;2023-01-16T08:13:05;99080.36;;;11.39;79.92
35307;BME280;21420;52.196;21.416;2023-01-16T08:15:32;99080.23;;;11.00;78.42
35307;BME280;21420;52.196;21.416;2023-01-16T08:17:59;99083.47;;;10.41;77.56
35307;BME280;21420;52.196;21.416;2023-01-16T08:20:25;99086.37;;;9.89;77.26
35307;BME280;21420;52.196;21.416;2023-01-16T08:22:52;99082.96;;;9.42;77.06
35307;BME280;21420;52.196;21.416;2023-01-16T08:25:21;99077.16;;;9.00;77.00
35307;BME280;21420;52.196;21.416;2023-01-16T08:27:48;99074.90;;;8.75;77.04
35307;BME280;21420;52.196;21.416;2023-01-16T08:30:15;99074.56;;;8.67;77.64
35307;BME280;21420;52.196;21.416;2023-01-16T08:32:45;99072.69;;;8.67;78.05
35307;BME280;21420;52.196;21.416;2023-01-16T08:35:12;99068.57;;;8.39;77.49
35307;BME280;21420;52.196;21.416;2023-01-16T08:37:39;99068.92;;;8.13;77.60
35307;BME280;21420;52.196;21.416;2023-01-16T08:40:13;99067.10;;;7.93;77.58
35307;BME280;21420;52.196;21.416;2023-01-16T08:42:40;99064.25;;;7.82;77.87
35307;BME280;21420;52.196;21.416;2023-01-16T08:45:26;99058.91;;;7.55;77.55
35307;BME280;21420;52.196;21.416;2023-01-16T08:48:13;99060.27;;;7.01;76.80
35307;BME280;21420;52.196;21.416;2023-01-16T08:51:20;99065.06;;;6.49;76.67
35307;BME280;21420;52.196;21.416;2023-01-16T08:53:52;99069.84;;;6.19;77.05
35307;BME280;21420;52.196;21.416;2023-01-16T08:56:20;99072.55;;;6.10;77.57
35307;BME280;21420;52.196;21.416;2023-01-16T08:58:47;99074.77;;;6.06;77.82
35307;BME280;21420;52.196;21.416;2023-01-16T09:01:14;99074.23;;;6.11;78.14
35307;BME280;21420;52.196;21.416;2023-01-16T09:03:42;99070.30;;;6.05;78.05
35307;BME280;21420;52.196;21.416;2023-01-16T09:06:09;99067.26;;;5.89;77.72
35307;BME280;21420;52.196;21.416;2023-01-16T09:08:36;99063.73;;;5.77;77.64
35307;BME280;21420;52.196;21.416;2023-01-16T09:11:03;99061.80;;;5.68;77.80
35307;BME280;21420;52.196;21.416;2023-01-16T09:13:48;99058.08;;;5.61;77.86
35307;BME280;21420;52.196;21.416;2023-01-16T09:16:19;99055.95;;;5.60;77.90
35307;BME280;21420;52.196;21.416;2023-01-16T09:18:46;99054.11;;;5.72;78.15
35307;BME280;21420;52.196;21.416;2023-01-16T09:21:14;99053.09;;;6.00;78.48
35307;BME280;21420;52.196;21.416;2023-01-16T09:23:41;99047.09;;;6.26;78.58
35307;BME280;21420;52.196;21.416;2023-01-16T09:26:08;99045.40;;;6.34;78.29
35307;BME280;21420;52.196;21.416;2023-01-16T09:28:35;99044.95;;;6.37;78.29
35307;BME280;21420;52.196;21.416;2023-01-16T09:31:02;99046.26;;;6.29;78.23
35307;BME280;21420;52.196;21.416;2023-01-16T09:33:29;99043.30;;;6.22;78.16
35307;BME280;21420;52.196;21.416;2023-01-16T09:35:56;99044.46;;;6.03;77.84
35307;BME280;21420;52.196;21.416;2023-01-16T09:38:23;99046.73;;;5.85;77.70
35307;BME280;21420;52.196;21.416;2023-01-16T09:40:51;99045.86;;;5.75;77.75
35307;BME280;21420;52.196;21.416;2023-01-16T09:44:04;99040.85;;;5.65;77.88
35307;BME280;21420;52.196;21.416;2023-01-16T09:46:12;99041.01;;;5.52;77.69
35307;BME280;21420;52.196;21.416;2023-01-16T09:48:44;99040.85;;;5.39;77.74
35307;BME280;21420;52.196;21.416;2023-01-16T09:54:16;99031.98;;;5.34;77.93
35307;BME280;21420;52.196;21.416;2023-01-16T09:57:04;99031.45;;;5.19;77.60
35307;BME280;21420;52.196;21.416;2023-01-16T09:59:55;99029.11;;;5.02;77.52
35307;BME280;21420;52.196;21.416;2023-01-16T10:02:28;99021.93;;;4.98;77.76
35307;BME280;21420;52.196;21.416;2023-01-16T10:05:00;99020.16;;;4.96;77.75
35307;BME280;21420;52.196;21.416;2023-01-16T10:10:36;99019.89;;;4.81;77.65
35307;BME280;21420;52.196;21.416;2023-01-16T10:13:09;99016.64;;;4.79;77.83
35307;BME280;21420;52.196;21.416;2023-01-16T10:18:25;99016.42;;;4.71;77.81
35307;BME280;21420;52.196;21.416;2023-01-16T10:26:14;98998.74;;;4.52;77.71
35307;BME280;21420;52.196;21.416;2023-01-16T10:33:45;98986.05;;;4.48;77.87
35307;BME280;21420;52.196;21.416;2023-01-16T10:36:19;98979.84;;;4.44;77.82
35307;BME280;21420;52.196;21.416;2023-01-16T10:38:47;98972.43;;;4.43;77.90
35307;BME280;21420;52.196;21.416;2023-01-16T10:41:19;98970.55;;;4.44;77.97
35307;BME280;21420;52.196;21.416;2023-01-16T10:47:27;98962.48;;;4.37;77.94
35307;BME280;21420;52.196;21.416;2023-01-16T10:50:15;98956.02;;;4.41;77.96
35307;BME280;21420;52.196;21.416;2023-01-16T10:53:01;98951.10;;;4.37;77.88
35307;BME280;21420;52.196;21.416;2023-01-16T10:55:28;98945.46;;;4.32;77.84
35307;BME280;21420;52.196;21.416;2023-01-16T10:57:57;98934.30;;;4.31;77.97
35307;BME280;21420;52.196;21.416;2023-01-16T11:00:27;98929.10;;;4.27;77.85
35307;BME280;21420;52.196;21.416;2023-01-16T11:02:57;98926.80;;;4.23;77.86
35307;BME280;21420;52.196;21.416;2023-01-16T11:05:32;98918.96;;;4.23;77.96
35307;BME280;21420;52.196;21.416;2023-01-16T11:08:06;98913.73;;;4.20;77.94
35307;BME280;21420;52.196;21.416;2023-01-16T11:10:36;98912.61;;;4.14;77.92
35307;BME280;21420;52.196;21.416;2023-01-16T11:13:04;98909.60;;;4.11;77.91
35307;BME280;21420;52.196;21.416;2023-01-16T11:16:03;98903.40;;;4.03;77.83
35307;BME280;21420;52.196;21.416;2023-01-16T11:18:58;98901.89;;;3.95;77.91
35307;BME280;21420;52.196;21.416;2023-01-16T11:21:29;98897.17;;;3.91;77.85
35307;BME280;21420;52.196;21.416;2023-01-16T11:23:57;98895.01;;;3.88;77.87
35307;BME280;21420;52.196;21.416;2023-01-16T11:26:25;98888.90;;;3.86;77.97
35307;BME280;21420;52.196;21.416;2023-01-16T11:28:52;98884.48;;;3.84;77.90
35307;BME280;21420;52.196;21.416;2023-01-16T11:31:21;98880.04;;;3.77;77.78
35307;BME280;21420;52.196;21.416;2023-01-16T11:33:50;98879.56;;;3.69;77.75
35307;BME280;21420;52.196;21.416;2023-01-16T11:36:21;98882.40;;;3.62;77.79
35307;BME280;21420;52.196;21.416;2023-01-16T11:38:49;98876.35;;;3.56;77.68
35307;BME280;21420;52.196;21.416;2023-01-16T11:41:28;98871.08;;;3.52;77.77
35307;BME280;21420;52.196;21.416;2023-01-16T11:47:00;98864.23;;;3.49;77.90
35307;BME280;21420;52.196;21.416;2023-01-16T11:49:32;98856.75;;;3.51;78.03
35307;BME280;21420;52.196;21.416;2023-01-16T11:52:00;98854.75;;;3.57;78.27
35307;BME280;21420;52.196;21.416;2023-01-16T11:54:31;98852.50;;;3.60;78.25
35307;BME280;21420;52.196;21.416;2023-01-16T11:59:39;98830.58;;;3.58;78.11
35307;BME280;21420;52.196;21.416;2023-01-16T12:05:04;98820.63;;;3.59;78.06
35307;BME280;21420;52.196;21.416;2023-01-16T12:13:08;98812.00;;;3.54;78.14
35307;BME280;21420;52.196;21.416;2023-01-16T12:16:10;98800.44;;;3.49;78.05
35307;BME280;21420;52.196;21.416;2023-01-16T12:23:46;98801.70;;;3.46;78.05
35307;BME280;21420;52.196;21.416;2023-01-16T12:26:25;98798.61;;;3.44;78.02
35307;BME280;21420;52.196;21.416;2023-01-16T12:34:19;98799.98;;;3.45;78.16
35307;BME280;21420;52.196;21.416;2023-01-16T12:39:29;98802.15;;;3.51;78.20
35307;BME280;21420;52.196;21.416;2023-01-16T12:47:32;98787.20;;;3.59;78.37
35307;BME280;21420;52.196;21.416;2023-01-16T12:55:21;98790.68;;;3.61;78.20
35307;BME280;21420;52.196;21.416;2023-01-16T12:58:03;98784.88;;;3.59;78.02
35307;BME280;21420;52.196;21.416;2023-01-16T13:00:37;98780.34;;;3.55;78.17
35307;BME280;21420;52.196;21.416;2023-01-16T13:05:41;98777.31;;;3.57;78.27
35307;BME280;21420;52.196;21.416;2023-01-16T13:10:50;98775.77;;;3.54;78.30
35307;BME280;21420;52.196;21.416;2023-01-16T13:13:57;98771.43;;;3.54;78.26
35307;BME280;21420;52.196;21.416;2023-01-16T13:16:30;98763.02;;;3.55;78.34
35307;BME280;21420;52.196;21.416;2023-01-16T13:19:00;98759.95;;;3.58;78.43
35307;BME280;21420;52.196;21.416;2023-01-16T13:21:35;98751.60;;;3.60;78.37
35307;BME280;21420;52.196;21.416;2023-01-16T13:24:04;98745.55;;;3.62;78.41
35307;BME280;21420;52.196;21.416;2023-01-16T13:26:36;98738.21;;;3.64;78.39
35307;BME280;21420;52.196;21.416;2023-01-16T13:33:59;98729.44;;;3.67;78.38
35307;BME280;21420;52.196;21.416;2023-01-16T13:41:42;98724.59;;;3.65;78.30
35307;BME280;21420;52.196;21.416;2023-01-16T13:44:15;98723.97;;;3.65;78.33
35307;BME280;21420;52.196;21.416;2023-01-16T13:47:05;98717.80;;;3.66;78.34
35307;BME280;21420;52.196;21.416;2023-01-16T13:49:33;98714.44;;;3.67;78.43
35307;BME280;21420;52.196;21.416;2023-01-16T13:52:01;98711.05;;;3.70;78.50
35307;BME280;21420;52.196;21.416;2023-01-16T13:54:41;98703.05;;;3.70;78.45
35307;BME280;21420;52.196;21.416;2023-01-16T13:57:13;98702.41;;;3.72;78.49
35307;BME280;21420;52.196;21.416;2023-01-16T13:59:44;98692.09;;;3.73;78.62
35307;BME280;21420;52.196;21.416;2023-01-16T14:02:24;98688.02;;;3.77;78.61
35307;BME280;21420;52.196;21.416;2023-01-16T14:10:39;98688.09;;;4.11;78.98
35307;BME280;21420;52.196;21.416;2023-01-16T14:13:14;98679.46;;;4.28;79.03
35307;BME280;21420;52.196;21.416;2023-01-16T14:15:49;98678.35;;;4.41;78.97
35307;BME280;21420;52.196;21.416;2023-01-16T14:18:36;98679.88;;;4.47;78.75
35307;BME280;21420;52.196;21.416;2023-01-16T14:21:05;98682.29;;;4.45;78.42
35307;BME280;21420;52.196;21.416;2023-01-16T14:23:36;98681.62;;;4.39;78.32
35307;BME280;21420;52.196;21.416;2023-01-16T14:28:59;98677.64;;;4.34;78.25
35307;BME280;21420;52.196;21.416;2023-01-16T14:31:29;98675.88;;;4.30;78.28
35307;BME280;21420;52.196;21.416;2023-01-16T14:34:01;98673.63;;;4.27;78.35
35307;BME280;21420;52.196;21.416;2023-01-16T14:36:28;98667.45;;;4.23;78.39
35307;BME280;21420;52.196;21.416;2023-01-16T14:38:59;98664.42;;;4.16;78.31
35307;BME280;21420;52.196;21.416;2023-01-16T14:41:27;98663.84;;;4.08;78.30
35307;BME280;21420;52.196;21.416;2023-01-16T14:44:16;98663.56;;;3.98;78.18
35307;BME280;21420;52.196;21.416;2023-01-16T14:50:07;98667.93;;;3.82;78.36
35307;BME280;21420;52.196;21.416;2023-01-16T14:55:58;98663.59;;;3.73;78.44
35307;BME280;21420;52.196;21.416;2023-01-16T14:58:36;98657.76;;;3.70;78.42
35307;BME280;21420;52.196;21.416;2023-01-16T15:01:07;98654.14;;;3.64;78.42
35307;BME280;21420;52.196;21.416;2023-01-16T15:04:00;98653.19;;;3.59;78.42
35307;BME280;21420;52.196;21.416;2023-01-16T15:06:30;98646.90;;;3.54;78.33
35307;BME280;21420;52.196;21.416;2023-01-16T15:08:58;98640.84;;;3.51;78.25
35307;BME280;21420;52.196;21.416;2023-01-16T15:11:26;98640.16;;;3.49;78.44
35307;BME280;21420;52.196;21.416;2023-01-16T15:14:05;98635.84;;;3.47;78.46
35307;BME280;21420;52.196;21.416;2023-01-16T15:22:54;98632.69;;;3.40;78.42
35307;BME280;21420;52.196;21.416;2023-01-16T15:28:31;98616.87;;;3.36;78.53
35307;BME280;21420;52.196;21.416;2023-01-16T15:31:03;98614.89;;;3.35;78.47
35307;BME280;21420;52.196;21.416;2023-01-16T15:33:32;98609.23;;;3.34;78.46
35307;BME280;21420;52.196;21.416;2023-01-16T15:38:58;98603.48;;;3.36;78.70
35307;BME280;21420;52.196;21.416;2023-01-16T15:41:26;98603.21;;;3.39;78.73